sensor_id;sensor_type;location;lat;lon;timestamp;temperature;humidity
2907;DHT22;1463;51.070;16.998;2023-04-01T00:00:00;11.10;99.90
2907;DHT22;1463;51.070;16.998;2023-04-01T00:02:27;11.00;99.90
2907;DHT22;1463;51.070;16.998;2023-04-01T00:04:55;10.90;99.90
2907;DHT22;1463;51.070;16.998;2023-04-01T00:07:22;10.80;99.90
2907;DHT22;1463;51.070;16.998;2023-04-01T00:09:49;10.80;99.90
2907;DHT22;1463;51.070;16.998;2023-04-01T00:12:17;10.80;99.90
2907;DHT22;1463;51.070;16.998;2023-04-01T00:14:50;10.80;99.90
2907;DHT22;1463;51.070;16.998;2023-04-01T00:17:18;10.60;99.90
2907;DHT22;1463;51.070;16.998;2023-04-01T00:19:45;10.60;99.90
2907;DHT22;1463;51.070;16.998;2023-04-01T00:22:13;10.40;99.90
2907;DHT22;1463;51.070;16.998;2023-04-01T00:24:41;10.40;99.90
2907;DHT22;1463;51.070;16.998;2023-04-01T00:27:08;10.40;99.90
2907;DHT22;1463;51.070;16.998;2023-04-01T00:29:36;10.30;99.90
2907;DHT22;1463;51.070;16.998;2023-04-01T00:32:05;10.40;99.90
2907;DHT22;1463;51.070;16.998;2023-04-01T00:34:32;10.40;99.90
2907;DHT22;1463;51.070;16.998;2023-04-01T00:37:00;10.30;99.90
2907;DHT22;1463;51.070;16.998;2023-04-01T00:39:31;10.30;99.90
2907;DHT22;1463;51.070;16.998;2023-04-01T00:41:58;10.40;99.90
2907;DHT22;1463;51.070;16.998;2023-04-01T00:44:28;10.50;99.90
2907;DHT22;1463;51.070;16.998;2023-04-01T00:46:57;10.50;99.90
2907;DHT22;1463;51.070;16.998;2023-04-01T00:49:30;10.50;99.90
2907;DHT22;1463;51.070;16.998;2023-04-01T00:52:02;10.50;99.90
2907;DHT22;1463;51.070;16.998;2023-04-01T00:54:31;10.60;99.90
2907;DHT22;1463;51.070;16.998;2023-04-01T00:57:02;10.70;99.90
2907;DHT22;1463;51.070;16.998;2023-04-01T00:59:31;10.70;99.90
2907;DHT22;1463;51.070;16.998;2023-04-01T01:02:01;10.70;99.90
2907;DHT22;1463;51.070;16.998;2023-04-01T01:04:31;10.80;99.90
2907;DHT22;1463;51.070;16.998;2023-04-01T01:07:12;10.80;99.90
2907;DHT22;1463;51.070;16.998;2023-04-01T01:09:46;10.90;99.90
2907;DHT22;1463;51.070;16.998;2023-04-01T01:12:21;10.80;99.90
2907;DHT22;1463;51.070;16.998;2023-04-01T01:14:58;10.80;99.90
2907;DHT22;1463;51.070;16.998;2023-04-01T01:17:35;10.80;99.90
2907;DHT22;1463;51.070;16.998;2023-04-01T01:20:37;10.80;99.90
2907;DHT22;1463;51.070;16.998;2023-04-01T01:23:39;10.80;99.90
2907;DHT22;1463;51.070;16.998;2023-04-01T01:26:35;10.90;99.90
2907;DHT22;1463;51.070;16.998;2023-04-01T01:29:10;10.90;99.90
2907;DHT22;1463;51.070;16.998;2023-04-01T01:31:50;11.00;99.90
2907;DHT22;1463;51.070;16.998;2023-04-01T01:34:21;11.00;99.90
2907;DHT22;1463;51.070;16.998;2023-04-01T01:36:55;11.00;99.90
2907;DHT22;1463;51.070;16.998;2023-04-01T01:39:27;11.00;99.90
2907;DHT22;1463;51.070;16.998;2023-04-01T01:41:59;11.00;99.90
2907;DHT22;1463;51.070;16.998;2023-04-01T01:44:28;10.90;99.90
2907;DHT22;1463;51.070;16.998;2023-04-01T01:47:01;11.00;99.90
2907;DHT22;1463;51.070;16.998;2023-04-01T01:49:28;11.00;99.90
2907;DHT22;1463;51.070;16.998;2023-04-01T01:51:59;11.00;99.90
2907;DHT22;1463;51.070;16.998;2023-04-01T01:54:26;11.00;99.90
2907;DHT22;1463;51.070;16.998;2023-04-01T01:56:59;11.10;99.90
2907;DHT22;1463;51.070;16.998;2023-04-01T01:59:29;11.10;99.90
2907;DHT22;1463;51.070;16.998;2023-04-01T02:01:57;11.10;99.90
2907;DHT22;1463;51.070;16.998;2023-04-01T02:04:25;11.00;99.90
2907;DHT22;1463;51.070;16.998;2023-04-01T02:06:56;11.00;99.90
2907;DHT22;1463;51.070;16.998;2023-04-01T02:09:27;11.10;99.90
2907;DHT22;1463;51.070;16.998;2023-04-01T02:11:57;11.10;99.90
2907;DHT22;1463;51.070;16.998;2023-04-01T02:14:26;11.10;99.90
2907;DHT22;1463;51.070;16.998;2023-04-01T02:16:57;11.10;99.90
2907;DHT22;1463;51.070;16.998;2023-04-01T02:19:27;11.10;99.90
2907;DHT22;1463;51.070;16.998;2023-04-01T02:21:58;11.10;99.90
2907;DHT22;1463;51.070;16.998;2023-04-01T02:24:30;11.10;99.90
2907;DHT22;1463;51.070;16.998;2023-04-01T02:26:59;11.10;99.90
2907;DHT22;1463;51.070;16.998;2023-04-01T02:29:27;11.00;99.90
2907;DHT22;1463;51.070;16.998;2023-04-01T02:31:55;11.00;99.90
2907;DHT22;1463;51.070;16.998;2023-04-01T02:34:23;11.00;99.90
2907;DHT22;1463;51.070;16.998;2023-04-01T02:36:52;11.00;99.90
2907;DHT22;1463;51.070;16.998;2023-04-01T02:39:20;11.00;99.90
2907;DHT22;1463;51.070;16.998;2023-04-01T02:41:49;11.00;99.90
2907;DHT22;1463;51.070;16.998;2023-04-01T02:44:17;11.00;99.90
2907;DHT22;1463;51.070;16.998;2023-04-01T02:46:44;11.00;99.90
2907;DHT22;1463;51.070;16.998;2023-04-01T02:49:12;11.10;99.90
2907;DHT22;1463;51.070;16.998;2023-04-01T02:51:39;11.00;99.90
2907;DHT22;1463;51.070;16.998;2023-04-01T02:54:06;10.90;99.90
2907;DHT22;1463;51.070;16.998;2023-04-01T02:56:34;11.00;99.90
2907;DHT22;1463;51.070;16.998;2023-04-01T02:59:03;11.00;99.90
2907;DHT22;1463;51.070;16.998;2023-04-01T03:01:30;11.00;99.90
2907;DHT22;1463;51.070;16.998;2023-04-01T03:03:58;11.00;99.90
2907;DHT22;1463;51.070;16.998;2023-04-01T03:06:25;11.00;99.90
2907;DHT22;1463;51.070;16.998;2023-04-01T03:08:53;11.00;99.90
2907;DHT22;1463;51.070;16.998;2023-04-01T03:11:20;11.00;99.90
2907;DHT22;1463;51.070;16.998;2023-04-01T03:13:50;11.00;99.90
2907;DHT22;1463;51.070;16.998;2023-04-01T03:16:19;11.10;99.90
2907;DHT22;1463;51.070;16.998;2023-04-01T03:18:46;11.00;99.90
2907;DHT22;1463;51.070;16.998;2023-04-01T03:21:16;11.00;99.90
2907;DHT22;1463;51.070;16.998;2023-04-01T03:23:44;11.00;99.90
2907;DHT22;1463;51.070;16.998;2023-04-01T03:26:12;11.00;99.90
2907;DHT22;1463;51.070;16.998;2023-04-01T03:28:39;10.90;99.90
2907;DHT22;1463;51.070;16.998;2023-04-01T03:31:07;10.90;99.90
2907;DHT22;1463;51.070;16.998;2023-04-01T03:33:38;11.00;99.90
2907;DHT22;1463;51.070;16.998;2023-04-01T03:36:06;10.90;99.90
2907;DHT22;1463;51.070;16.998;2023-04-01T03:38:33;10.90;99.90
2907;DHT22;1463;51.070;16.998;2023-04-01T03:41:01;10.90;99.90
2907;DHT22;1463;51.070;16.998;2023-04-01T03:43:30;10.90;99.90
2907;DHT22;1463;51.070;16.998;2023-04-01T03:45:58;10.90;99.90
2907;DHT22;1463;51.070;16.998;2023-04-01T03:48:25;10.90;99.90
2907;DHT22;1463;51.070;16.998;2023-04-01T03:50:56;10.90;99.90
2907;DHT22;1463;51.070;16.998;2023-04-01T03:53:24;10.80;99.90
2907;DHT22;1463;51.070;16.998;2023-04-01T03:55:52;10.70;99.90
2907;DHT22;1463;51.070;16.998;2023-04-01T03:58:20;10.70;99.90
2907;DHT22;1463;51.070;16.998;2023-04-01T04:00:47;10.70;99.90
2907;DHT22;1463;51.070;16.998;2023-04-01T04:03:14;10.70;99.90
2907;DHT22;1463;51.070;16.998;2023-04-01T04:05:46;10.60;99.90
2907;DHT22;1463;51.070;16.998;2023-04-01T04:08:15;10.70;99.90
2907;DHT22;1463;51.070;16.998;2023-04-01T04:10:44;10.60;99.90
2907;DHT22;1463;51.070;16.998;2023-04-01T04:13:12;10.60;99.90
2907;DHT22;1463;51.070;16.998;2023-04-01T04:15:41;10.60;99.90
2907;DHT22;1463;51.070;16.998;2023-04-01T04:18:08;10.50;99.90
2907;DHT22;1463;51.070;16.998;2023-04-01T04:20:35;10.60;99.90
2907;DHT22;1463;51.070;16.998;2023-04-01T04:23:03;10.60;99.90
2907;DHT22;1463;51.070;16.998;2023-04-01T04:25:31;10.60;99.90
2907;DHT22;1463;51.070;16.998;2023-04-01T04:27:59;10.50;99.90
2907;DHT22;1463;51.070;16.998;2023-04-01T04:30:26;10.50;99.90
2907;DHT22;1463;51.070;16.998;2023-04-01T04:32:53;10.50;99.90
2907;DHT22;1463;51.070;16.998;2023-04-01T04:35:21;10.50;99.90
2907;DHT22;1463;51.070;16.998;2023-04-01T04:37:50;10.40;99.90
2907;DHT22;1463;51.070;16.998;2023-04-01T04:40:17;10.40;99.90
2907;DHT22;1463;51.070;16.998;2023-04-01T04:42:46;10.40;99.90
2907;DHT22;1463;51.070;16.998;2023-04-01T04:45:14;10.40;99.90
2907;DHT22;1463;51.070;16.998;2023-04-01T04:47:41;10.40;99.90
2907;DHT22;1463;51.070;16.998;2023-04-01T04:50:09;10.40;99.90
2907;DHT22;1463;51.070;16.998;2023-04-01T04:52:37;10.40;99.90
2907;DHT22;1463;51.070;16.998;2023-04-01T04:55:05;10.40;99.90
2907;DHT22;1463;51.070;16.998;2023-04-01T04:57:33;10.40;99.90
2907;DHT22;1463;51.070;16.998;2023-04-01T05:00:02;10.40;99.90
2907;DHT22;1463;51.070;16.998;2023-04-01T05:02:29;10.50;99.90
2907;DHT22;1463;51.070;16.998;2023-04-01T05:04:57;10.50;99.90
2907;DHT22;1463;51.070;16.998;2023-04-01T05:07:24;10.50;99.90
2907;DHT22;1463;51.070;16.998;2023-04-01T05:09:52;10.50;99.90
2907;DHT22;1463;51.070;16.998;2023-04-01T05:12:19;10.40;99.90
2907;DHT22;1463;51.070;16.998;2023-04-01T05:14:46;10.50;99.90
2907;DHT22;1463;51.070;16.998;2023-04-01T05:17:15;10.40;99.90
2907;DHT22;1463;51.070;16.998;2023-04-01T05:19:43;10.40;99.90
2907;DHT22;1463;51.070;16.998;2023-04-01T05:22:10;10.40;99.90
2907;DHT22;1463;51.070;16.998;2023-04-01T05:24:37;10.30;99.90
2907;DHT22;1463;51.070;16.998;2023-04-01T05:27:05;10.20;99.90
2907;DHT22;1463;51.070;16.998;2023-04-01T05:29:32;10.20;99.90
2907;DHT22;1463;51.070;16.998;2023-04-01T05:32:00;10.30;99.90
2907;DHT22;1463;51.070;16.998;2023-04-01T05:34:31;10.30;99.90
2907;DHT22;1463;51.070;16.998;2023-04-01T05:36:58;10.30;99.90
2907;DHT22;1463;51.070;16.998;2023-04-01T05:39:26;10.30;99.90
2907;DHT22;1463;51.070;16.998;2023-04-01T05:41:53;10.30;99.90
2907;DHT22;1463;51.070;16.998;2023-04-01T05:44:20;10.30;99.90
2907;DHT22;1463;51.070;16.998;2023-04-01T05:46:48;10.30;99.90
2907;DHT22;1463;51.070;16.998;2023-04-01T05:49:15;10.30;99.90
2907;DHT22;1463;51.070;16.998;2023-04-01T05:51:44;10.30;99.90
2907;DHT22;1463;51.070;16.998;2023-04-01T05:54:11;10.30;99.90
2907;DHT22;1463;51.070;16.998;2023-04-01T05:56:39;10.30;99.90
2907;DHT22;1463;51.070;16.998;2023-04-01T05:59:06;10.30;99.90
2907;DHT22;1463;51.070;16.998;2023-04-01T06:01:34;10.30;99.90
2907;DHT22;1463;51.070;16.998;2023-04-01T06:04:01;10.30;99.90
2907;DHT22;1463;51.070;16.998;2023-04-01T06:06:30;10.30;99.90
2907;DHT22;1463;51.070;16.998;2023-04-01T06:09:07;10.30;99.90
2907;DHT22;1463;51.070;16.998;2023-04-01T06:11:48;10.30;99.90
2907;DHT22;1463;51.070;16.998;2023-04-01T06:14:26;10.30;99.90
2907;DHT22;1463;51.070;16.998;2023-04-01T06:17:05;10.30;99.90
2907;DHT22;1463;51.070;16.998;2023-04-01T06:19:39;10.40;99.90
2907;DHT22;1463;51.070;16.998;2023-04-01T06:25:31;10.40;99.90
2907;DHT22;1463;51.070;16.998;2023-04-01T06:28:18;10.40;99.90
2907;DHT22;1463;51.070;16.998;2023-04-01T06:30:53;10.40;99.90
2907;DHT22;1463;51.070;16.998;2023-04-01T06:33:40;10.40;99.90
2907;DHT22;1463;51.070;16.998;2023-04-01T06:39:29;10.50;99.90
2907;DHT22;1463;51.070;16.998;2023-04-01T06:42:24;10.60;99.90
2907;DHT22;1463;51.070;16.998;2023-04-01T06:45:07;10.60;99.90
2907;DHT22;1463;51.070;16.998;2023-04-01T06:47:46;10.60;99.90
2907;DHT22;1463;51.070;16.998;2023-04-01T06:50:24;10.70;99.90
2907;DHT22;1463;51.070;16.998;2023-04-01T06:52:58;10.60;99.90
2907;DHT22;1463;51.070;16.998;2023-04-01T06:55:32;10.60;99.90
2907;DHT22;1463;51.070;16.998;2023-04-01T06:58:10;10.70;99.90
2907;DHT22;1463;51.070;16.998;2023-04-01T07:00:42;10.70;99.90
2907;DHT22;1463;51.070;16.998;2023-04-01T07:03:18;10.70;99.90
2907;DHT22;1463;51.070;16.998;2023-04-01T07:05:46;10.70;99.90
2907;DHT22;1463;51.070;16.998;2023-04-01T07:08:18;10.70;99.90
2907;DHT22;1463;51.070;16.998;2023-04-01T07:10:50;10.70;99.90
2907;DHT22;1463;51.070;16.998;2023-04-01T07:13:27;10.70;99.90
2907;DHT22;1463;51.070;16.998;2023-04-01T07:16:04;10.70;99.90
2907;DHT22;1463;51.070;16.998;2023-04-01T07:18:38;10.70;99.90
2907;DHT22;1463;51.070;16.998;2023-04-01T07:21:14;10.70;99.90
2907;DHT22;1463;51.070;16.998;2023-04-01T07:23:46;10.80;99.90
2907;DHT22;1463;51.070;16.998;2023-04-01T07:26:17;10.80;99.90
2907;DHT22;1463;51.070;16.998;2023-04-01T07:28:48;11.10;99.90
2907;DHT22;1463;51.070;16.998;2023-04-01T07:31:48;11.20;99.90
2907;DHT22;1463;51.070;16.998;2023-04-01T07:34:22;11.20;99.90
2907;DHT22;1463;51.070;16.998;2023-04-01T07:36:57;11.30;99.90
2907;DHT22;1463;51.070;16.998;2023-04-01T07:39:37;11.30;99.90
2907;DHT22;1463;51.070;16.998;2023-04-01T07:42:13;11.30;99.90
2907;DHT22;1463;51.070;16.998;2023-04-01T07:44:50;11.10;99.90
2907;DHT22;1463;51.070;16.998;2023-04-01T07:47:27;11.10;99.90
2907;DHT22;1463;51.070;16.998;2023-04-01T07:50:08;11.10;99.90
2907;DHT22;1463;51.070;16.998;2023-04-01T07:52:42;11.10;99.90
2907;DHT22;1463;51.070;16.998;2023-04-01T07:55:16;11.10;99.90
2907;DHT22;1463;51.070;16.998;2023-04-01T07:57:51;11.20;99.90
2907;DHT22;1463;51.070;16.998;2023-04-01T08:00:26;11.20;99.90
2907;DHT22;1463;51.070;16.998;2023-04-01T08:03:16;11.20;99.90
2907;DHT22;1463;51.070;16.998;2023-04-01T08:05:53;11.30;99.90
2907;DHT22;1463;51.070;16.998;2023-04-01T08:08:29;11.40;99.90
2907;DHT22;1463;51.070;16.998;2023-04-01T08:11:08;11.40;99.90
2907;DHT22;1463;51.070;16.998;2023-04-01T08:13:43;11.40;99.90
2907;DHT22;1463;51.070;16.998;2023-04-01T08:16:20;11.50;99.90
2907;DHT22;1463;51.070;16.998;2023-04-01T08:18:56;11.60;99.90
2907;DHT22;1463;51.070;16.998;2023-04-01T08:21:32;11.60;99.90
2907;DHT22;1463;51.070;16.998;2023-04-01T08:24:06;11.60;99.90
2907;DHT22;1463;51.070;16.998;2023-04-01T08:26:40;11.60;99.90
2907;DHT22;1463;51.070;16.998;2023-04-01T08:29:15;11.60;99.90
2907;DHT22;1463;51.070;16.998;2023-04-01T08:31:49;11.60;99.90
2907;DHT22;1463;51.070;16.998;2023-04-01T08:34:21;11.70;99.90
2907;DHT22;1463;51.070;16.998;2023-04-01T08:36:52;11.70;99.90
2907;DHT22;1463;51.070;16.998;2023-04-01T08:39:29;11.70;99.90
2907;DHT22;1463;51.070;16.998;2023-04-01T08:42:13;11.80;99.90
2907;DHT22;1463;51.070;16.998;2023-04-01T08:45:11;11.80;99.90
2907;DHT22;1463;51.070;16.998;2023-04-01T08:47:52;11.80;99.90
2907;DHT22;1463;51.070;16.998;2023-04-01T08:50:47;11.90;99.90
2907;DHT22;1463;51.070;16.998;2023-04-01T08:53:24;11.90;99.90
2907;DHT22;1463;51.070;16.998;2023-04-01T08:56:01;12.00;99.90
2907;DHT22;1463;51.070;16.998;2023-04-01T08:58:54;12.10;99.90
2907;DHT22;1463;51.070;16.998;2023-04-01T09:01:58;12.00;99.90
2907;DHT22;1463;51.070;16.998;2023-04-01T09:04:51;12.00;99.90
2907;DHT22;1463;51.070;16.998;2023-04-01T09:07:35;12.10;99.90
2907;DHT22;1463;51.070;16.998;2023-04-01T09:13:29;12.20;99.90
2907;DHT22;1463;51.070;16.998;2023-04-01T09:16:13;12.20;99.90
2907;DHT22;1463;51.070;16.998;2023-04-01T09:19:05;12.20;99.90
2907;DHT22;1463;51.070;16.998;2023-04-01T09:22:05;12.20;99.90
2907;DHT22;1463;51.070;16.998;2023-04-01T09:27:44;12.20;99.90
2907;DHT22;1463;51.070;16.998;2023-04-01T09:30:33;12.20;99.90
2907;DHT22;1463;51.070;16.998;2023-04-01T09:33:17;12.30;99.90
2907;DHT22;1463;51.070;16.998;2023-04-01T09:36:02;12.30;99.90
2907;DHT22;1463;51.070;16.998;2023-04-01T09:38:42;12.50;99.90
2907;DHT22;1463;51.070;16.998;2023-04-01T09:41:25;12.50;99.90
2907;DHT22;1463;51.070;16.998;2023-04-01T09:44:03;12.50;99.90
2907;DHT22;1463;51.070;16.998;2023-04-01T09:46:51;12.60;99.90
2907;DHT22;1463;51.070;16.998;2023-04-01T09:49:45;12.60;99.90
2907;DHT22;1463;51.070;16.998;2023-04-01T09:52:33;12.80;99.90
2907;DHT22;1463;51.070;16.998;2023-04-01T09:55:27;12.70;99.90
2907;DHT22;1463;51.070;16.998;2023-04-01T09:58:32;12.70;99.90
2907;DHT22;1463;51.070;16.998;2023-04-01T10:04:17;12.40;99.90
2907;DHT22;1463;51.070;16.998;2023-04-01T10:07:34;12.70;99.90
2907;DHT22;1463;51.070;16.998;2023-04-01T10:16:48;13.30;99.90
2907;DHT22;1463;51.070;16.998;2023-04-01T10:19:42;13.30;99.90
2907;DHT22;1463;51.070;16.998;2023-04-01T10:22:36;13.40;99.90
2907;DHT22;1463;51.070;16.998;2023-04-01T10:28:47;13.30;99.90
2907;DHT22;1463;51.070;16.998;2023-04-01T10:37:31;13.50;99.90
2907;DHT22;1463;51.070;16.998;2023-04-01T10:43:22;14.10;99.90
2907;DHT22;1463;51.070;16.998;2023-04-01T10:52:32;14.30;99.90
2907;DHT22;1463;51.070;16.998;2023-04-01T10:55:24;14.40;99.90
2907;DHT22;1463;51.070;16.998;2023-04-01T11:01:39;14.30;99.90
2907;DHT22;1463;51.070;16.998;2023-04-01T11:07:58;14.00;99.90
2907;DHT22;1463;51.070;16.998;2023-04-01T11:17:19;13.40;99.90
2907;DHT22;1463;51.070;16.998;2023-04-01T11:23:14;13.20;99.90
2907;DHT22;1463;51.070;16.998;2023-04-01T11:26:12;13.10;99.90
2907;DHT22;1463;51.070;16.998;2023-04-01T11:29:09;13.00;99.90
2907;DHT22;1463;51.070;16.998;2023-04-01T11:31:58;13.00;99.90
2907;DHT22;1463;51.070;16.998;2023-04-01T11:34:50;13.10;99.90
2907;DHT22;1463;51.070;16.998;2023-04-01T11:37:29;13.10;99.90
2907;DHT22;1463;51.070;16.998;2023-04-01T11:40:08;13.10;99.90
2907;DHT22;1463;51.070;16.998;2023-04-01T11:42:44;13.10;99.90
2907;DHT22;1463;51.070;16.998;2023-04-01T11:45:29;13.20;99.90
2907;DHT22;1463;51.070;16.998;2023-04-01T11:48:21;13.30;99.90
2907;DHT22;1463;51.070;16.998;2023-04-01T11:51:10;13.30;99.90
2907;DHT22;1463;51.070;16.998;2023-04-01T11:53:48;13.30;99.90
2907;DHT22;1463;51.070;16.998;2023-04-01T11:56:45;13.40;99.90
2907;DHT22;1463;51.070;16.998;2023-04-01T12:02:25;13.40;99.90
2907;DHT22;1463;51.070;16.998;2023-04-01T12:05:23;13.30;99.90
2907;DHT22;1463;51.070;16.998;2023-04-01T12:08:07;13.10;99.90
2907;DHT22;1463;51.070;16.998;2023-04-01T12:10:41;13.10;99.90
2907;DHT22;1463;51.070;16.998;2023-04-01T12:13:22;13.10;99.90
2907;DHT22;1463;51.070;16.998;2023-04-01T12:16:06;13.10;99.90
2907;DHT22;1463;51.070;16.998;2023-04-01T12:18:38;13.00;99.90
2907;DHT22;1463;51.070;16.998;2023-04-01T12:21:17;12.90;99.90
2907;DHT22;1463;51.070;16.998;2023-04-01T12:24:16;13.10;99.90
2907;DHT22;1463;51.070;16.998;2023-04-01T12:27:11;13.20;99.90
2907;DHT22;1463;51.070;16.998;2023-04-01T12:29:53;13.50;99.90
2907;DHT22;1463;51.070;16.998;2023-04-01T12:32:33;13.80;99.90
2907;DHT22;1463;51.070;16.998;2023-04-01T12:35:23;13.90;99.90
2907;DHT22;1463;51.070;16.998;2023-04-01T12:38:17;13.80;99.90
2907;DHT22;1463;51.070;16.998;2023-04-01T12:41:10;13.70;99.90
2907;DHT22;1463;51.070;16.998;2023-04-01T12:44:02;13.90;99.90
2907;DHT22;1463;51.070;16.998;2023-04-01T12:46:49;14.10;99.90
2907;DHT22;1463;51.070;16.998;2023-04-01T12:49:39;14.10;99.90
2907;DHT22;1463;51.070;16.998;2023-04-01T12:52:12;14.10;99.90
2907;DHT22;1463;51.070;16.998;2023-04-01T13:04:16;13.90;99.90
2907;DHT22;1463;51.070;16.998;2023-04-01T13:07:10;13.80;99.90
2907;DHT22;1463;51.070;16.998;2023-04-01T13:09:52;13.70;99.90
2907;DHT22;1463;51.070;16.998;2023-04-01T13:12:47;13.60;99.90
2907;DHT22;1463;51.070;16.998;2023-04-01T13:15:26;13.50;99.90
2907;DHT22;1463;51.070;16.998;2023-04-01T13:18:07;13.40;99.90
2907;DHT22;1463;51.070;16.998;2023-04-01T13:20:44;13.20;99.90
2907;DHT22;1463;51.070;16.998;2023-04-01T13:23:24;13.10;99.90
2907;DHT22;1463;51.070;16.998;2023-04-01T13:25:59;13.00;99.90
2907;DHT22;1463;51.070;16.998;2023-04-01T13:28:32;13.00;99.90
2907;DHT22;1463;51.070;16.998;2023-04-01T13:31:06;12.90;99.90
2907;DHT22;1463;51.070;16.998;2023-04-01T13:33:44;12.80;99.90
2907;DHT22;1463;51.070;16.998;2023-04-01T13:36:23;12.80;99.90
2907;DHT22;1463;51.070;16.998;2023-04-01T13:42:16;12.70;99.90
2907;DHT22;1463;51.070;16.998;2023-04-01T13:44:51;12.60;99.90
2907;DHT22;1463;51.070;16.998;2023-04-01T13:50:43;12.50;99.90
2907;DHT22;1463;51.070;16.998;2023-04-01T13:56:19;12.30;99.90
2907;DHT22;1463;51.070;16.998;2023-04-01T14:01:49;12.30;99.90
2907;DHT22;1463;51.070;16.998;2023-04-01T14:07:37;12.20;99.90
2907;DHT22;1463;51.070;16.998;2023-04-01T14:10:18;12.20;99.90
2907;DHT22;1463;51.070;16.998;2023-04-01T14:12:53;12.20;99.90
2907;DHT22;1463;51.070;16.998;2023-04-01T14:15:42;12.20;99.90
2907;DHT22;1463;51.070;16.998;2023-04-01T14:18:39;12.10;99.90
2907;DHT22;1463;51.070;16.998;2023-04-01T14:21:20;12.10;99.90
2907;DHT22;1463;51.070;16.998;2023-04-01T14:24:05;12.10;99.90
2907;DHT22;1463;51.070;16.998;2023-04-01T14:27:01;12.10;99.90
2907;DHT22;1463;51.070;16.998;2023-04-01T14:29:37;12.10;99.90
2907;DHT22;1463;51.070;16.998;2023-04-01T14:32:14;12.00;99.90
2907;DHT22;1463;51.070;16.998;2023-04-01T14:34:57;12.00;99.90
2907;DHT22;1463;51.070;16.998;2023-04-01T14:37:55;12.00;99.90
2907;DHT22;1463;51.070;16.998;2023-04-01T14:40:38;12.00;99.90
2907;DHT22;1463;51.070;16.998;2023-04-01T14:49:22;12.00;99.90
2907;DHT22;1463;51.070;16.998;2023-04-01T14:51:52;12.00;99.90
2907;DHT22;1463;51.070;16.998;2023-04-01T14:54:21;12.00;99.90
2907;DHT22;1463;51.070;16.998;2023-04-01T14:57:10;12.00;99.90
2907;DHT22;1463;51.070;16.998;2023-04-01T14:59:40;12.00;99.90
2907;DHT22;1463;51.070;16.998;2023-04-01T15:02:22;12.00;99.90
2907;DHT22;1463;51.070;16.998;2023-04-01T15:04:58;11.90;99.90
2907;DHT22;1463;51.070;16.998;2023-04-01T15:07:49;12.00;99.90
2907;DHT22;1463;51.070;16.998;2023-04-01T15:10:42;12.00;99.90
2907;DHT22;1463;51.070;16.998;2023-04-01T15:13:16;12.00;99.90
2907;DHT22;1463;51.070;16.998;2023-04-01T15:16:04;12.10;99.90
2907;DHT22;1463;51.070;16.998;2023-04-01T15:18:42;12.10;99.90
2907;DHT22;1463;51.070;16.998;2023-04-01T15:21:37;12.20;99.90
2907;DHT22;1463;51.070;16.998;2023-04-01T15:24:15;12.20;99.90
2907;DHT22;1463;51.070;16.998;2023-04-01T15:27:03;12.30;99.90
2907;DHT22;1463;51.070;16.998;2023-04-01T15:29:58;12.30;99.90
2907;DHT22;1463;51.070;16.998;2023-04-01T15:32:40;12.40;99.90
2907;DHT22;1463;51.070;16.998;2023-04-01T15:35:19;12.50;99.90
2907;DHT22;1463;51.070;16.998;2023-04-01T15:37:53;12.50;99.90
2907;DHT22;1463;51.070;16.998;2023-04-01T15:40:25;12.40;99.90
2907;DHT22;1463;51.070;16.998;2023-04-01T15:43:11;12.50;99.90
2907;DHT22;1463;51.070;16.998;2023-04-01T15:45:49;12.70;99.90
2907;DHT22;1463;51.070;16.998;2023-04-01T15:48:30;12.70;99.90
2907;DHT22;1463;51.070;16.998;2023-04-01T15:51:25;12.70;99.90
2907;DHT22;1463;51.070;16.998;2023-04-01T15:54:06;12.80;99.90
2907;DHT22;1463;51.070;16.998;2023-04-01T15:56:52;12.80;99.90
2907;DHT22;1463;51.070;16.998;2023-04-01T15:59:41;12.70;99.90
2907;DHT22;1463;51.070;16.998;2023-04-01T16:02:20;12.80;99.90
2907;DHT22;1463;51.070;16.998;2023-04-01T16:04:54;12.80;99.90
2907;DHT22;1463;51.070;16.998;2023-04-01T16:07:43;12.60;99.90
2907;DHT22;1463;51.070;16.998;2023-04-01T16:10:24;12.70;99.90
2907;DHT22;1463;51.070;16.998;2023-04-01T16:13:09;12.60;99.90
2907;DHT22;1463;51.070;16.998;2023-04-01T16:15:47;12.50;99.90
2907;DHT22;1463;51.070;16.998;2023-04-01T16:18:32;12.60;99.90
2907;DHT22;1463;51.070;16.998;2023-04-01T16:21:04;12.60;99.90
2907;DHT22;1463;51.070;16.998;2023-04-01T16:23:37;12.60;99.90
2907;DHT22;1463;51.070;16.998;2023-04-01T16:26:09;12.50;99.90
2907;DHT22;1463;51.070;16.998;2023-04-01T16:28:45;12.60;99.90
2907;DHT22;1463;51.070;16.998;2023-04-01T16:31:27;12.50;99.90
2907;DHT22;1463;51.070;16.998;2023-04-01T16:34:03;12.40;99.90
2907;DHT22;1463;51.070;16.998;2023-04-01T16:36:37;12.30;99.90
2907;DHT22;1463;51.070;16.998;2023-04-01T16:39:26;12.40;99.90
2907;DHT22;1463;51.070;16.998;2023-04-01T16:42:11;12.30;99.90
2907;DHT22;1463;51.070;16.998;2023-04-01T16:44:49;12.20;99.90
2907;DHT22;1463;51.070;16.998;2023-04-01T16:47:20;12.30;99.90
2907;DHT22;1463;51.070;16.998;2023-04-01T16:49:54;12.20;99.90
2907;DHT22;1463;51.070;16.998;2023-04-01T16:52:40;12.20;99.90
2907;DHT22;1463;51.070;16.998;2023-04-01T16:55:16;12.20;99.90
2907;DHT22;1463;51.070;16.998;2023-04-01T16:57:49;12.20;99.90
2907;DHT22;1463;51.070;16.998;2023-04-01T17:00:25;12.10;99.90
2907;DHT22;1463;51.070;16.998;2023-04-01T17:03:02;12.10;99.90
2907;DHT22;1463;51.070;16.998;2023-04-01T17:05:52;12.00;99.90
2907;DHT22;1463;51.070;16.998;2023-04-01T17:08:37;12.00;99.90
2907;DHT22;1463;51.070;16.998;2023-04-01T17:11:11;12.00;99.90
2907;DHT22;1463;51.070;16.998;2023-04-01T17:13:47;12.10;99.90
2907;DHT22;1463;51.070;16.998;2023-04-01T17:16:50;11.90;99.90
2907;DHT22;1463;51.070;16.998;2023-04-01T17:19:32;12.00;99.90
2907;DHT22;1463;51.070;16.998;2023-04-01T17:22:12;12.00;99.90
2907;DHT22;1463;51.070;16.998;2023-04-01T17:24:51;12.00;99.90
2907;DHT22;1463;51.070;16.998;2023-04-01T17:27:30;12.10;99.90
2907;DHT22;1463;51.070;16.998;2023-04-01T17:30:24;12.10;99.90
2907;DHT22;1463;51.070;16.998;2023-04-01T17:36:08;12.00;99.90
2907;DHT22;1463;51.070;16.998;2023-04-01T17:38:54;12.10;99.90
2907;DHT22;1463;51.070;16.998;2023-04-01T17:41:36;12.00;99.90
2907;DHT22;1463;51.070;16.998;2023-04-01T17:44:20;12.10;99.90
2907;DHT22;1463;51.070;16.998;2023-04-01T17:47:07;12.10;99.90
2907;DHT22;1463;51.070;16.998;2023-04-01T17:49:42;12.00;99.90
2907;DHT22;1463;51.070;16.998;2023-04-01T17:52:19;12.00;99.90
2907;DHT22;1463;51.070;16.998;2023-04-01T17:54:55;11.90;99.90
2907;DHT22;1463;51.070;16.998;2023-04-01T17:57:43;11.90;99.90
2907;DHT22;1463;51.070;16.998;2023-04-01T18:00:22;11.90;99.90
2907;DHT22;1463;51.070;16.998;2023-04-01T18:03:01;11.90;99.90
2907;DHT22;1463;51.070;16.998;2023-04-01T18:05:40;12.00;99.90
2907;DHT22;1463;51.070;16.998;2023-04-01T18:08:16;11.90;99.90
2907;DHT22;1463;51.070;16.998;2023-04-01T18:10:56;12.00;99.90
2907;DHT22;1463;51.070;16.998;2023-04-01T18:16:38;12.00;99.90
2907;DHT22;1463;51.070;16.998;2023-04-01T18:19:15;12.00;99.90
2907;DHT22;1463;51.070;16.998;2023-04-01T18:21:47;12.00;99.90
2907;DHT22;1463;51.070;16.998;2023-04-01T18:24:20;11.90;99.90